Flight Number: EUR3110 Duration: 9:30
Departure: Moscow Sheremetyevo (UUEE) at 08:30 Distance: 4037 Nm
Arrival: John F Kennedy Int'l (KJFK) at 18:00 Equipment: B747

Weather Information
Moscow / Sheremet'Ye , Russia (UUEE) 55-59N 037-30E Feb 24, 2018 - 01:00 AM EST / 2018.02.24 0600 UTC
Wind: Calm:0
Visibility: 4 mile(s):0 Weather: mist Temperature: 3 F (-16 C) Dew Point: 1 F (-17 C) Relative Humidity: 91% Pressure (altimeter): 30.30 in. Hg (1026 hPa)
ob: UUEE 240600Z 00000MPS 8000 2200SW BR NSC M16/M17 Q1026 R24R/410340 R24L/410351 NOSIG cycle: 6
Sunrise: 04:37 Sunset: 14:49 (UTC)

KENNEDY INTERNATIONAL AIRPORT , NY, United States (KJFK) 40-38N 073-46W 9M Feb 24, 2018 - 12:51 AM EST / 2018.02.24 0551 UTC
Wind: from the WSW (250 degrees) at 8 MPH (7 KT):0
Visibility: 6 mile(s):0
Sky conditions: overcast Weather: mist Temperature: 42.1 F (5.6 C) Dew Point: 42.1 F (5.6 C) Relative Humidity: 100% Pressure (altimeter): 30.2 in. Hg (1022 hPa) Pressure tendency: 0.04 inches (1.5 hPa) lower than three hours ago
ob: KJFK 240551Z 25007KT 6SM BR BKN008 BKN011 BKN050 OVC160 06/06 A3020 RMK AO2 SLP225 T00560056 10056 20039 55015 cycle: 6
Sunrise: 11:38 Sunset: 22:38 (UTC)

TAF:2018/02/24 06:57 TAF KJFK 240550Z 2406/2512 25007KT 5SM BR OVC006 FM241000 27005KT P6SM BKN010 BKN030 OVC100 FM241400 31008KT P6SM FEW015 OVC080 FM241800 VRB05KT P6SM OVC080 FM242100 33004KT 5SM -DZ BR BKN025 OVC050 FM250300 05009KT 4SM -DZ BR BKN012 OVC035 FM250700 08011KT 2SM -RA BR OVC008

Previous Pireps for this route
Date Aircraft Flight time Fuel used Landing rate On time
2015-05-06A34009.42163207-115Charter
2016-05-21B74709.22186414-142Yes
2017-05-13B74709.05204715-124Charter
(pireps marked green are flown by you)

Route map